Pagrindinis puslapis
METAR-TAF:

METAR-TAF

Oro uostai :

Rijadas, Saudo Arabija

platuma: 24-56N, ilguma: 046-43E, Aukštis: 614 m

Dabartinis oras

Ataskaita buvo paskelbta 32 minutes, ne 11:00 UTC
Vėjas 6 kt iš Rytų/Pietryčių
Temperatūra 35°C
Drėgmė 20%
Slėgis 1017 hPa
Matomumas 10 km arba daugiau
Mažai debesys ne aukštis 4000 ft

METAR: OERK 141100Z 11006KT 9999 FEW040 35/09 Q1017 NOSIG

Laikas: 14:32 (11:32 UTC)

Prognozė

Ataskaita buvo paskelbta 6 valandos ir 32 minutes, ne 05:00 UTC
Prognozė galioja nuo 14 metu 06 UTC su 15 metu 12 UTC
Vėjas 15 kt iš Pietryčių
Matomumas: 7000 m
Mažai debesys ne aukštis 4000 ft

TAF: OERK 140500Z 1406/1512 13015KT 7000 FEW040

Orai ataskaitas ir orų prognozės (METAR, TAF).

turimą stotys yra geltonos ir raudonos taškus žemėlapyje.

Perkelti pele per norėdami pamatyti stoties vardą.

Tada spustelėkite, norėdami matyti oro stebėjimo ir prognozės.

Norėdami pakeisti žemėlapį: spustelėkite ant žalios mygtukų su juodo kryžiaus žemyn,; žalią mygtuką su brūkšneliu, jei norite nutolinti; arba žalių rodyklių gretimoms žemėlapius.


METAR-TAF: